sensor_id;sensor_type;location;lat;lon;timestamp;P1;durP1;ratioP1;P2;durP2;ratioP2
9720;SDS011;4899;42.644;23.366;2023-03-02T00:00:05;4.47;;;4.07;;
9720;SDS011;4899;42.644;23.366;2023-03-02T00:02:38;4.10;;;3.67;;
9720;SDS011;4899;42.644;23.366;2023-03-02T00:05:05;4.20;;;3.80;;
9720;SDS011;4899;42.644;23.366;2023-03-02T00:07:33;4.37;;;3.97;;
9720;SDS011;4899;42.644;23.366;2023-03-02T00:10:00;3.90;;;3.60;;
9720;SDS011;4899;42.644;23.366;2023-03-02T00:12:26;4.13;;;3.70;;
9720;SDS011;4899;42.644;23.366;2023-03-02T00:14:55;4.17;;;3.87;;
9720;SDS011;4899;42.644;23.366;2023-03-02T00:17:20;6.23;;;4.00;;
9720;SDS011;4899;42.644;23.366;2023-03-02T00:19:52;3.80;;;3.50;;
9720;SDS011;4899;42.644;23.366;2023-03-02T00:22:18;4.70;;;3.83;;
9720;SDS011;4899;42.644;23.366;2023-03-02T00:24:44;4.23;;;3.50;;
9720;SDS011;4899;42.644;23.366;2023-03-02T00:27:09;3.70;;;3.30;;
9720;SDS011;4899;42.644;23.366;2023-03-02T00:29:35;4.13;;;3.73;;
9720;SDS011;4899;42.644;23.366;2023-03-02T00:32:00;3.60;;;3.30;;
9720;SDS011;4899;42.644;23.366;2023-03-02T00:34:28;4.17;;;3.77;;
9720;SDS011;4899;42.644;23.366;2023-03-02T00:36:56;3.73;;;3.40;;
9720;SDS011;4899;42.644;23.366;2023-03-02T00:39:22;3.80;;;3.50;;
9720;SDS011;4899;42.644;23.366;2023-03-02T00:41:48;3.50;;;3.20;;
9720;SDS011;4899;42.644;23.366;2023-03-02T00:44:13;4.13;;;3.30;;
9720;SDS011;4899;42.644;23.366;2023-03-02T00:46:41;3.63;;;3.33;;
9720;SDS011;4899;42.644;23.366;2023-03-02T00:49:07;5.33;;;3.20;;
9720;SDS011;4899;42.644;23.366;2023-03-02T00:51:32;3.47;;;3.17;;
9720;SDS011;4899;42.644;23.366;2023-03-02T00:53:57;3.47;;;3.17;;
9720;SDS011;4899;42.644;23.366;2023-03-02T00:56:26;3.23;;;3.03;;
9720;SDS011;4899;42.644;23.366;2023-03-02T00:58:52;2.63;;;2.43;;
9720;SDS011;4899;42.644;23.366;2023-03-02T01:01:17;3.27;;;2.93;;
9720;SDS011;4899;42.644;23.366;2023-03-02T01:03:43;2.93;;;2.73;;
9720;SDS011;4899;42.644;23.366;2023-03-02T01:06:15;3.37;;;3.10;;
9720;SDS011;4899;42.644;23.366;2023-03-02T01:08:43;3.63;;;2.70;;
9720;SDS011;4899;42.644;23.366;2023-03-02T01:11:12;3.30;;;3.03;;
9720;SDS011;4899;42.644;23.366;2023-03-02T01:13:42;2.93;;;2.73;;
9720;SDS011;4899;42.644;23.366;2023-03-02T01:16:09;3.10;;;2.80;;
9720;SDS011;4899;42.644;23.366;2023-03-02T01:18:35;2.73;;;2.53;;
9720;SDS011;4899;42.644;23.366;2023-03-02T01:21:04;2.87;;;2.67;;
9720;SDS011;4899;42.644;23.366;2023-03-02T01:23:32;2.73;;;2.40;;
9720;SDS011;4899;42.644;23.366;2023-03-02T01:25:57;2.80;;;2.60;;
9720;SDS011;4899;42.644;23.366;2023-03-02T01:28:23;2.63;;;2.43;;
9720;SDS011;4899;42.644;23.366;2023-03-02T01:30:48;3.00;;;2.70;;
9720;SDS011;4899;42.644;23.366;2023-03-02T01:33:14;2.23;;;2.13;;
9720;SDS011;4899;42.644;23.366;2023-03-02T01:35:39;2.77;;;2.33;;
9720;SDS011;4899;42.644;23.366;2023-03-02T01:38:04;2.20;;;1.73;;
9720;SDS011;4899;42.644;23.366;2023-03-02T01:40:30;1.83;;;1.73;;
9720;SDS011;4899;42.644;23.366;2023-03-02T01:42:56;2.13;;;2.03;;
9720;SDS011;4899;42.644;23.366;2023-03-02T01:48:14;2.07;;;1.97;;
9720;SDS011;4899;42.644;23.366;2023-03-02T01:50:42;1.67;;;1.57;;
9720;SDS011;4899;42.644;23.366;2023-03-02T01:53:09;2.20;;;1.93;;
9720;SDS011;4899;42.644;23.366;2023-03-02T01:55:35;1.80;;;1.70;;
9720;SDS011;4899;42.644;23.366;2023-03-02T01:58:03;2.13;;;2.03;;
9720;SDS011;4899;42.644;23.366;2023-03-02T02:00:32;1.83;;;1.73;;
9720;SDS011;4899;42.644;23.366;2023-03-02T02:03:03;1.73;;;1.63;;
9720;SDS011;4899;42.644;23.366;2023-03-02T02:05:36;1.67;;;1.57;;
9720;SDS011;4899;42.644;23.366;2023-03-02T02:08:04;2.00;;;1.90;;
9720;SDS011;4899;42.644;23.366;2023-03-02T02:10:30;2.10;;;1.90;;
9720;SDS011;4899;42.644;23.366;2023-03-02T02:12:57;2.00;;;1.90;;
9720;SDS011;4899;42.644;23.366;2023-03-02T02:15:22;1.77;;;1.67;;
9720;SDS011;4899;42.644;23.366;2023-03-02T02:17:48;2.33;;;1.70;;
9720;SDS011;4899;42.644;23.366;2023-03-02T02:20:25;1.97;;;1.70;;
9720;SDS011;4899;42.644;23.366;2023-03-02T02:23:01;2.37;;;2.17;;
9720;SDS011;4899;42.644;23.366;2023-03-02T02:28:19;2.23;;;2.10;;
9720;SDS011;4899;42.644;23.366;2023-03-02T02:33:48;3.27;;;2.40;;
9720;SDS011;4899;42.644;23.366;2023-03-02T02:36:18;2.40;;;2.20;;
9720;SDS011;4899;42.644;23.366;2023-03-02T02:38:47;3.33;;;2.07;;
9720;SDS011;4899;42.644;23.366;2023-03-02T02:41:24;2.27;;;2.10;;
9720;SDS011;4899;42.644;23.366;2023-03-02T02:43:53;2.40;;;2.20;;
9720;SDS011;4899;42.644;23.366;2023-03-02T02:46:20;2.33;;;2.13;;
9720;SDS011;4899;42.644;23.366;2023-03-02T02:48:45;2.20;;;2.10;;
9720;SDS011;4899;42.644;23.366;2023-03-02T02:51:12;3.80;;;2.40;;
9720;SDS011;4899;42.644;23.366;2023-03-02T02:53:47;2.43;;;2.23;;
9720;SDS011;4899;42.644;23.366;2023-03-02T02:56:22;1.90;;;1.80;;
9720;SDS011;4899;42.644;23.366;2023-03-02T02:58:54;2.10;;;1.90;;
9720;SDS011;4899;42.644;23.366;2023-03-02T03:01:22;2.10;;;1.77;;
9720;SDS011;4899;42.644;23.366;2023-03-02T03:03:51;2.00;;;1.90;;
9720;SDS011;4899;42.644;23.366;2023-03-02T03:06:23;1.73;;;1.63;;
9720;SDS011;4899;42.644;23.366;2023-03-02T03:08:52;2.63;;;2.10;;
9720;SDS011;4899;42.644;23.366;2023-03-02T03:11:27;3.03;;;2.03;;
9720;SDS011;4899;42.644;23.366;2023-03-02T03:14:02;2.10;;;2.00;;
9720;SDS011;4899;42.644;23.366;2023-03-02T03:16:34;2.20;;;2.00;;
9720;SDS011;4899;42.644;23.366;2023-03-02T03:21:58;2.03;;;1.83;;
9720;SDS011;4899;42.644;23.366;2023-03-02T03:24:26;2.23;;;1.67;;
9720;SDS011;4899;42.644;23.366;2023-03-02T03:26:52;2.13;;;2.03;;
9720;SDS011;4899;42.644;23.366;2023-03-02T03:29:19;2.03;;;1.83;;
9720;SDS011;4899;42.644;23.366;2023-03-02T03:31:48;2.50;;;2.10;;
9720;SDS011;4899;42.644;23.366;2023-03-02T03:34:18;2.10;;;1.87;;
9720;SDS011;4899;42.644;23.366;2023-03-02T03:36:44;2.10;;;2.00;;
9720;SDS011;4899;42.644;23.366;2023-03-02T03:39:10;2.20;;;2.10;;
9720;SDS011;4899;42.644;23.366;2023-03-02T03:41:36;2.13;;;1.93;;
9720;SDS011;4899;42.644;23.366;2023-03-02T03:44:02;2.47;;;2.33;;
9720;SDS011;4899;42.644;23.366;2023-03-02T03:46:28;2.03;;;1.93;;
9720;SDS011;4899;42.644;23.366;2023-03-02T03:48:53;2.07;;;1.97;;
9720;SDS011;4899;42.644;23.366;2023-03-02T03:51:19;3.83;;;2.27;;
9720;SDS011;4899;42.644;23.366;2023-03-02T03:53:45;2.10;;;2.00;;
9720;SDS011;4899;42.644;23.366;2023-03-02T03:56:10;4.23;;;2.10;;
9720;SDS011;4899;42.644;23.366;2023-03-02T03:58:36;3.27;;;2.50;;
9720;SDS011;4899;42.644;23.366;2023-03-02T04:01:01;3.10;;;2.90;;
9720;SDS011;4899;42.644;23.366;2023-03-02T04:03:27;2.77;;;2.57;;
9720;SDS011;4899;42.644;23.366;2023-03-02T04:05:53;2.50;;;2.30;;
9720;SDS011;4899;42.644;23.366;2023-03-02T04:08:18;3.33;;;3.00;;
9720;SDS011;4899;42.644;23.366;2023-03-02T04:10:44;3.50;;;3.20;;
9720;SDS011;4899;42.644;23.366;2023-03-02T04:13:10;3.30;;;3.00;;
9720;SDS011;4899;42.644;23.366;2023-03-02T04:15:35;2.20;;;2.10;;
9720;SDS011;4899;42.644;23.366;2023-03-02T04:18:03;2.60;;;2.40;;
9720;SDS011;4899;42.644;23.366;2023-03-02T04:20:29;2.27;;;2.17;;
9720;SDS011;4899;42.644;23.366;2023-03-02T04:22:55;2.33;;;1.73;;
9720;SDS011;4899;42.644;23.366;2023-03-02T04:25:22;2.30;;;2.17;;
9720;SDS011;4899;42.644;23.366;2023-03-02T04:27:53;1.83;;;1.73;;
9720;SDS011;4899;42.644;23.366;2023-03-02T04:30:21;3.53;;;2.33;;
9720;SDS011;4899;42.644;23.366;2023-03-02T04:32:48;4.70;;;2.80;;
9720;SDS011;4899;42.644;23.366;2023-03-02T04:35:14;2.90;;;2.70;;
9720;SDS011;4899;42.644;23.366;2023-03-02T04:37:40;3.47;;;3.13;;
9720;SDS011;4899;42.644;23.366;2023-03-02T04:40:06;3.53;;;3.23;;
9720;SDS011;4899;42.644;23.366;2023-03-02T04:42:34;3.60;;;3.37;;
9720;SDS011;4899;42.644;23.366;2023-03-02T04:45:00;3.77;;;3.47;;
9720;SDS011;4899;42.644;23.366;2023-03-02T04:47:26;4.37;;;4.00;;
9720;SDS011;4899;42.644;23.366;2023-03-02T04:49:52;3.87;;;3.57;;
9720;SDS011;4899;42.644;23.366;2023-03-02T04:52:19;4.80;;;4.40;;
9720;SDS011;4899;42.644;23.366;2023-03-02T04:54:45;5.90;;;4.47;;
9720;SDS011;4899;42.644;23.366;2023-03-02T04:57:11;5.00;;;4.40;;
9720;SDS011;4899;42.644;23.366;2023-03-02T04:59:36;4.63;;;4.33;;
9720;SDS011;4899;42.644;23.366;2023-03-02T05:02:02;5.43;;;4.93;;
9720;SDS011;4899;42.644;23.366;2023-03-02T05:04:28;5.43;;;4.93;;
9720;SDS011;4899;42.644;23.366;2023-03-02T05:06:54;5.00;;;4.60;;
9720;SDS011;4899;42.644;23.366;2023-03-02T05:09:20;5.50;;;5.07;;
9720;SDS011;4899;42.644;23.366;2023-03-02T05:11:51;5.03;;;4.63;;
9720;SDS011;4899;42.644;23.366;2023-03-02T05:14:20;5.40;;;5.00;;
9720;SDS011;4899;42.644;23.366;2023-03-02T05:16:45;5.60;;;5.10;;
9720;SDS011;4899;42.644;23.366;2023-03-02T05:19:11;5.63;;;5.13;;
9720;SDS011;4899;42.644;23.366;2023-03-02T05:21:37;5.70;;;5.30;;
9720;SDS011;4899;42.644;23.366;2023-03-02T05:24:03;5.90;;;5.40;;
9720;SDS011;4899;42.644;23.366;2023-03-02T05:26:29;5.50;;;5.00;;
9720;SDS011;4899;42.644;23.366;2023-03-02T05:28:54;6.60;;;5.57;;
9720;SDS011;4899;42.644;23.366;2023-03-02T05:31:21;6.17;;;5.60;;
9720;SDS011;4899;42.644;23.366;2023-03-02T05:33:59;5.47;;;4.97;;
9720;SDS011;4899;42.644;23.366;2023-03-02T05:36:25;5.83;;;5.33;;
9720;SDS011;4899;42.644;23.366;2023-03-02T05:38:50;5.57;;;5.10;;
9720;SDS011;4899;42.644;23.366;2023-03-02T05:41:16;6.43;;;5.93;;
9720;SDS011;4899;42.644;23.366;2023-03-02T05:43:42;5.80;;;5.30;;
9720;SDS011;4899;42.644;23.366;2023-03-02T05:46:07;6.30;;;5.70;;
9720;SDS011;4899;42.644;23.366;2023-03-02T05:48:33;6.20;;;5.60;;
9720;SDS011;4899;42.644;23.366;2023-03-02T05:50:58;7.30;;;5.90;;
9720;SDS011;4899;42.644;23.366;2023-03-02T05:53:24;7.17;;;6.57;;
9720;SDS011;4899;42.644;23.366;2023-03-02T05:55:49;6.40;;;5.90;;
9720;SDS011;4899;42.644;23.366;2023-03-02T05:58:16;6.67;;;5.57;;
9720;SDS011;4899;42.644;23.366;2023-03-02T06:00:43;6.23;;;5.63;;
9720;SDS011;4899;42.644;23.366;2023-03-02T06:03:10;5.60;;;5.10;;
9720;SDS011;4899;42.644;23.366;2023-03-02T06:05:35;5.77;;;5.27;;
9720;SDS011;4899;42.644;23.366;2023-03-02T06:08:01;5.53;;;5.10;;
9720;SDS011;4899;42.644;23.366;2023-03-02T06:10:27;6.10;;;5.60;;
9720;SDS011;4899;42.644;23.366;2023-03-02T06:12:53;5.63;;;5.23;;
9720;SDS011;4899;42.644;23.366;2023-03-02T06:15:19;5.57;;;5.17;;
9720;SDS011;4899;42.644;23.366;2023-03-02T06:17:45;6.13;;;5.63;;
9720;SDS011;4899;42.644;23.366;2023-03-02T06:20:11;5.80;;;5.30;;
9720;SDS011;4899;42.644;23.366;2023-03-02T06:22:41;6.63;;;6.03;;
9720;SDS011;4899;42.644;23.366;2023-03-02T06:25:19;6.37;;;5.77;;
9720;SDS011;4899;42.644;23.366;2023-03-02T06:27:46;6.40;;;5.80;;
9720;SDS011;4899;42.644;23.366;2023-03-02T06:30:16;6.43;;;5.87;;
9720;SDS011;4899;42.644;23.366;2023-03-02T06:32:43;6.57;;;5.97;;
9720;SDS011;4899;42.644;23.366;2023-03-02T06:35:09;7.03;;;6.43;;
9720;SDS011;4899;42.644;23.366;2023-03-02T06:37:35;6.83;;;6.13;;
9720;SDS011;4899;42.644;23.366;2023-03-02T06:40:01;6.60;;;6.10;;
9720;SDS011;4899;42.644;23.366;2023-03-02T06:42:32;7.10;;;6.50;;
9720;SDS011;4899;42.644;23.366;2023-03-02T06:44:58;6.33;;;5.70;;
9720;SDS011;4899;42.644;23.366;2023-03-02T06:47:24;6.20;;;5.70;;
9720;SDS011;4899;42.644;23.366;2023-03-02T06:49:49;6.70;;;6.20;;
9720;SDS011;4899;42.644;23.366;2023-03-02T06:52:15;6.43;;;5.83;;
9720;SDS011;4899;42.644;23.366;2023-03-02T06:54:41;6.70;;;6.20;;
9720;SDS011;4899;42.644;23.366;2023-03-02T06:57:06;7.00;;;6.40;;
9720;SDS011;4899;42.644;23.366;2023-03-02T06:59:32;7.07;;;6.40;;
9720;SDS011;4899;42.644;23.366;2023-03-02T07:01:58;7.27;;;6.57;;
9720;SDS011;4899;42.644;23.366;2023-03-02T07:04:24;7.67;;;6.97;;
9720;SDS011;4899;42.644;23.366;2023-03-02T07:06:49;7.03;;;6.43;;
9720;SDS011;4899;42.644;23.366;2023-03-02T07:09:15;7.90;;;7.20;;
9720;SDS011;4899;42.644;23.366;2023-03-02T07:11:40;7.73;;;7.10;;
9720;SDS011;4899;42.644;23.366;2023-03-02T07:14:06;7.13;;;6.53;;
9720;SDS011;4899;42.644;23.366;2023-03-02T07:16:32;7.73;;;7.13;;
9720;SDS011;4899;42.644;23.366;2023-03-02T07:18:58;6.70;;;6.10;;
9720;SDS011;4899;42.644;23.366;2023-03-02T07:21:24;6.90;;;6.30;;
9720;SDS011;4899;42.644;23.366;2023-03-02T07:23:49;8.20;;;7.40;;
9720;SDS011;4899;42.644;23.366;2023-03-02T07:26:15;8.13;;;7.33;;
9720;SDS011;4899;42.644;23.366;2023-03-02T07:28:40;6.80;;;6.13;;
9720;SDS011;4899;42.644;23.366;2023-03-02T07:31:07;7.37;;;6.67;;
9720;SDS011;4899;42.644;23.366;2023-03-02T07:33:33;6.80;;;6.20;;
9720;SDS011;4899;42.644;23.366;2023-03-02T07:36:00;9.93;;;7.47;;
9720;SDS011;4899;42.644;23.366;2023-03-02T07:38:26;7.70;;;6.90;;
9720;SDS011;4899;42.644;23.366;2023-03-02T07:40:52;7.80;;;7.00;;
9720;SDS011;4899;42.644;23.366;2023-03-02T07:43:18;7.50;;;6.80;;
9720;SDS011;4899;42.644;23.366;2023-03-02T07:45:43;8.10;;;7.30;;
9720;SDS011;4899;42.644;23.366;2023-03-02T07:48:09;7.80;;;7.00;;
9720;SDS011;4899;42.644;23.366;2023-03-02T07:50:34;8.07;;;7.27;;
9720;SDS011;4899;42.644;23.366;2023-03-02T07:53:00;7.27;;;6.57;;
9720;SDS011;4899;42.644;23.366;2023-03-02T07:55:25;7.80;;;7.10;;
9720;SDS011;4899;42.644;23.366;2023-03-02T07:57:51;7.47;;;6.77;;
9720;SDS011;4899;42.644;23.366;2023-03-02T08:00:16;8.13;;;7.40;;
9720;SDS011;4899;42.644;23.366;2023-03-02T08:02:42;7.40;;;5.93;;
9720;SDS011;4899;42.644;23.366;2023-03-02T08:05:09;6.53;;;5.93;;
9720;SDS011;4899;42.644;23.366;2023-03-02T08:07:35;6.90;;;6.20;;
9720;SDS011;4899;42.644;23.366;2023-03-02T08:10:01;8.67;;;6.20;;
9720;SDS011;4899;42.644;23.366;2023-03-02T08:12:27;7.37;;;6.67;;
9720;SDS011;4899;42.644;23.366;2023-03-02T08:14:53;6.70;;;6.00;;
9720;SDS011;4899;42.644;23.366;2023-03-02T08:17:19;6.53;;;5.93;;
9720;SDS011;4899;42.644;23.366;2023-03-02T08:19:44;6.67;;;5.97;;
9720;SDS011;4899;42.644;23.366;2023-03-02T08:22:10;5.93;;;5.43;;
9720;SDS011;4899;42.644;23.366;2023-03-02T08:24:36;6.93;;;5.90;;
9720;SDS011;4899;42.644;23.366;2023-03-02T08:27:02;5.83;;;5.33;;
9720;SDS011;4899;42.644;23.366;2023-03-02T08:29:28;5.87;;;5.37;;
9720;SDS011;4899;42.644;23.366;2023-03-02T08:31:55;6.00;;;5.50;;
9720;SDS011;4899;42.644;23.366;2023-03-02T08:34:20;6.63;;;6.03;;
9720;SDS011;4899;42.644;23.366;2023-03-02T08:36:46;6.70;;;6.10;;
9720;SDS011;4899;42.644;23.366;2023-03-02T08:39:11;7.17;;;6.43;;
9720;SDS011;4899;42.644;23.366;2023-03-02T08:41:37;7.90;;;7.20;;
9720;SDS011;4899;42.644;23.366;2023-03-02T08:44:03;7.87;;;7.07;;
9720;SDS011;4899;42.644;23.366;2023-03-02T08:46:28;8.27;;;7.57;;
9720;SDS011;4899;42.644;23.366;2023-03-02T08:48:55;10.90;;;8.77;;
9720;SDS011;4899;42.644;23.366;2023-03-02T08:51:22;10.07;;;9.13;;
9720;SDS011;4899;42.644;23.366;2023-03-02T08:53:49;8.73;;;7.93;;
9720;SDS011;4899;42.644;23.366;2023-03-02T08:56:21;7.97;;;7.27;;
9720;SDS011;4899;42.644;23.366;2023-03-02T08:58:49;7.80;;;7.00;;
9720;SDS011;4899;42.644;23.366;2023-03-02T09:01:16;6.87;;;6.37;;
9720;SDS011;4899;42.644;23.366;2023-03-02T09:03:46;7.47;;;6.77;;
9720;SDS011;4899;42.644;23.366;2023-03-02T09:06:12;6.57;;;6.07;;
9720;SDS011;4899;42.644;23.366;2023-03-02T09:08:37;7.30;;;6.60;;
9720;SDS011;4899;42.644;23.366;2023-03-02T09:11:03;7.10;;;6.40;;
9720;SDS011;4899;42.644;23.366;2023-03-02T09:13:29;7.50;;;6.83;;
9720;SDS011;4899;42.644;23.366;2023-03-02T09:15:55;7.90;;;7.20;;
9720;SDS011;4899;42.644;23.366;2023-03-02T09:18:20;7.00;;;6.40;;
9720;SDS011;4899;42.644;23.366;2023-03-02T09:20:49;7.33;;;6.70;;
9720;SDS011;4899;42.644;23.366;2023-03-02T09:23:16;6.80;;;6.20;;
9720;SDS011;4899;42.644;23.366;2023-03-02T09:25:42;6.77;;;6.17;;
9720;SDS011;4899;42.644;23.366;2023-03-02T09:28:07;7.30;;;6.70;;
9720;SDS011;4899;42.644;23.366;2023-03-02T09:30:33;7.50;;;6.80;;
9720;SDS011;4899;42.644;23.366;2023-03-02T09:32:59;6.07;;;5.63;;
9720;SDS011;4899;42.644;23.366;2023-03-02T09:35:24;7.27;;;6.67;;
9720;SDS011;4899;42.644;23.366;2023-03-02T09:37:49;6.80;;;6.23;;
9720;SDS011;4899;42.644;23.366;2023-03-02T09:40:16;6.57;;;5.97;;
9720;SDS011;4899;42.644;23.366;2023-03-02T09:43:47;6.60;;;6.00;;
9720;SDS011;4899;42.644;23.366;2023-03-02T09:45:50;6.47;;;5.97;;
9720;SDS011;4899;42.644;23.366;2023-03-02T09:48:37;6.87;;;6.03;;
9720;SDS011;4899;42.644;23.366;2023-03-02T09:51:15;7.13;;;6.53;;
9720;SDS011;4899;42.644;23.366;2023-03-02T09:54:09;6.60;;;6.00;;
9720;SDS011;4899;42.644;23.366;2023-03-02T09:56:42;6.10;;;5.60;;
9720;SDS011;4899;42.644;23.366;2023-03-02T09:59:14;5.93;;;5.53;;
9720;SDS011;4899;42.644;23.366;2023-03-02T10:02:23;6.10;;;5.60;;
9720;SDS011;4899;42.644;23.366;2023-03-02T10:04:46;6.07;;;5.60;;
9720;SDS011;4899;42.644;23.366;2023-03-02T10:07:16;5.77;;;5.27;;
9720;SDS011;4899;42.644;23.366;2023-03-02T10:09:46;6.00;;;5.50;;
9720;SDS011;4899;42.644;23.366;2023-03-02T10:14:56;8.93;;;6.10;;
9720;SDS011;4899;42.644;23.366;2023-03-02T10:20:20;5.83;;;5.23;;
9720;SDS011;4899;42.644;23.366;2023-03-02T10:22:53;6.13;;;5.57;;
9720;SDS011;4899;42.644;23.366;2023-03-02T10:25:41;5.97;;;5.37;;
9720;SDS011;4899;42.644;23.366;2023-03-02T10:28:20;7.20;;;4.90;;
9720;SDS011;4899;42.644;23.366;2023-03-02T10:30:59;6.30;;;5.70;;
9720;SDS011;4899;42.644;23.366;2023-03-02T10:33:36;5.27;;;4.87;;
9720;SDS011;4899;42.644;23.366;2023-03-02T10:36:04;5.70;;;5.20;;
9720;SDS011;4899;42.644;23.366;2023-03-02T10:38:55;5.13;;;4.73;;
9720;SDS011;4899;42.644;23.366;2023-03-02T10:41:38;5.47;;;5.00;;
9720;SDS011;4899;42.644;23.366;2023-03-02T10:46:51;5.67;;;5.17;;
9720;SDS011;4899;42.644;23.366;2023-03-02T10:54:29;5.10;;;4.70;;
9720;SDS011;4899;42.644;23.366;2023-03-02T10:56:58;5.33;;;4.87;;
9720;SDS011;4899;42.644;23.366;2023-03-02T11:02:23;8.90;;;5.30;;
9720;SDS011;4899;42.644;23.366;2023-03-02T11:04:55;5.40;;;4.90;;
9720;SDS011;4899;42.644;23.366;2023-03-02T11:07:24;4.93;;;4.53;;
9720;SDS011;4899;42.644;23.366;2023-03-02T11:10:02;5.00;;;4.53;;
9720;SDS011;4899;42.644;23.366;2023-03-02T11:12:44;5.00;;;4.30;;
9720;SDS011;4899;42.644;23.366;2023-03-02T11:15:24;5.37;;;4.97;;
9720;SDS011;4899;42.644;23.366;2023-03-02T11:18:07;5.23;;;4.73;;
9720;SDS011;4899;42.644;23.366;2023-03-02T11:20:37;5.37;;;4.23;;
9720;SDS011;4899;42.644;23.366;2023-03-02T11:25:38;4.90;;;4.50;;
9720;SDS011;4899;42.644;23.366;2023-03-02T11:28:09;8.70;;;4.47;;
9720;SDS011;4899;42.644;23.366;2023-03-02T11:30:46;4.80;;;4.50;;
9720;SDS011;4899;42.644;23.366;2023-03-02T11:33:58;5.03;;;4.50;;
9720;SDS011;4899;42.644;23.366;2023-03-02T11:36:35;6.83;;;5.27;;
9720;SDS011;4899;42.644;23.366;2023-03-02T11:39:10;5.80;;;5.30;;
9720;SDS011;4899;42.644;23.366;2023-03-02T11:41:40;6.33;;;5.73;;
9720;SDS011;4899;42.644;23.366;2023-03-02T11:44:11;5.87;;;5.37;;
9720;SDS011;4899;42.644;23.366;2023-03-02T11:46:37;4.40;;;3.93;;
9720;SDS011;4899;42.644;23.366;2023-03-02T11:49:03;5.97;;;4.50;;
9720;SDS011;4899;42.644;23.366;2023-03-02T11:51:36;5.33;;;4.93;;
9720;SDS011;4899;42.644;23.366;2023-03-02T11:54:13;5.43;;;4.90;;
9720;SDS011;4899;42.644;23.366;2023-03-02T11:56:53;11.10;;;5.30;;
9720;SDS011;4899;42.644;23.366;2023-03-02T11:59:19;6.03;;;5.23;;
9720;SDS011;4899;42.644;23.366;2023-03-02T12:01:48;6.27;;;4.60;;
9720;SDS011;4899;42.644;23.366;2023-03-02T12:06:58;5.47;;;4.63;;
9720;SDS011;4899;42.644;23.366;2023-03-02T12:09:34;6.07;;;4.53;;
9720;SDS011;4899;42.644;23.366;2023-03-02T12:12:18;5.40;;;4.90;;
9720;SDS011;4899;42.644;23.366;2023-03-02T12:14:49;5.90;;;4.20;;
9720;SDS011;4899;42.644;23.366;2023-03-02T12:19:44;4.87;;;4.47;;
9720;SDS011;4899;42.644;23.366;2023-03-02T12:22:10;6.90;;;6.20;;
9720;SDS011;4899;42.644;23.366;2023-03-02T12:24:39;4.97;;;4.57;;
9720;SDS011;4899;42.644;23.366;2023-03-02T12:29:45;5.63;;;5.13;;
9720;SDS011;4899;42.644;23.366;2023-03-02T12:32:29;5.37;;;4.37;;
9720;SDS011;4899;42.644;23.366;2023-03-02T12:37:29;5.67;;;4.90;;
9720;SDS011;4899;42.644;23.366;2023-03-02T12:42:57;8.10;;;4.70;;
9720;SDS011;4899;42.644;23.366;2023-03-02T12:51:23;6.40;;;4.63;;
9720;SDS011;4899;42.644;23.366;2023-03-02T12:56:29;5.40;;;5.00;;
9720;SDS011;4899;42.644;23.366;2023-03-02T12:58:54;5.60;;;5.10;;
9720;SDS011;4899;42.644;23.366;2023-03-02T13:01:21;5.97;;;5.37;;
9720;SDS011;4899;42.644;23.366;2023-03-02T13:03:52;6.10;;;5.30;;
9720;SDS011;4899;42.644;23.366;2023-03-02T13:06:18;7.73;;;5.63;;
9720;SDS011;4899;42.644;23.366;2023-03-02T13:08:47;5.70;;;5.30;;
9720;SDS011;4899;42.644;23.366;2023-03-02T13:11:26;6.57;;;5.57;;
9720;SDS011;4899;42.644;23.366;2023-03-02T13:13:55;7.93;;;5.17;;
9720;SDS011;4899;42.644;23.366;2023-03-02T13:16:24;5.53;;;5.13;;
9720;SDS011;4899;42.644;23.366;2023-03-02T13:18:55;6.60;;;4.87;;
9720;SDS011;4899;42.644;23.366;2023-03-02T13:21:29;7.63;;;5.70;;
9720;SDS011;4899;42.644;23.366;2023-03-02T13:24:01;6.97;;;6.37;;
9720;SDS011;4899;42.644;23.366;2023-03-02T13:26:32;7.07;;;6.37;;
9720;SDS011;4899;42.644;23.366;2023-03-02T13:29:00;7.20;;;6.50;;
9720;SDS011;4899;42.644;23.366;2023-03-02T13:31:29;7.40;;;6.67;;
9720;SDS011;4899;42.644;23.366;2023-03-02T13:33:56;6.90;;;6.30;;
9720;SDS011;4899;42.644;23.366;2023-03-02T13:36:23;6.70;;;6.00;;
9720;SDS011;4899;42.644;23.366;2023-03-02T13:38:55;6.53;;;5.93;;
9720;SDS011;4899;42.644;23.366;2023-03-02T13:41:24;8.70;;;5.90;;
9720;SDS011;4899;42.644;23.366;2023-03-02T13:44:10;6.97;;;6.27;;
9720;SDS011;4899;42.644;23.366;2023-03-02T13:46:43;9.43;;;6.67;;
9720;SDS011;4899;42.644;23.366;2023-03-02T13:49:09;7.20;;;6.53;;
9720;SDS011;4899;42.644;23.366;2023-03-02T13:51:45;8.23;;;7.53;;
9720;SDS011;4899;42.644;23.366;2023-03-02T13:54:13;8.10;;;7.23;;
9720;SDS011;4899;42.644;23.366;2023-03-02T13:56:45;8.33;;;7.50;;
9720;SDS011;4899;42.644;23.366;2023-03-02T13:59:14;8.60;;;7.80;;
9720;SDS011;4899;42.644;23.366;2023-03-02T14:01:42;7.70;;;7.00;;
9720;SDS011;4899;42.644;23.366;2023-03-02T14:04:14;8.40;;;7.50;;
9720;SDS011;4899;42.644;23.366;2023-03-02T14:06:47;9.00;;;8.10;;
9720;SDS011;4899;42.644;23.366;2023-03-02T14:09:14;7.33;;;6.63;;
9720;SDS011;4899;42.644;23.366;2023-03-02T14:11:41;10.77;;;7.40;;
9720;SDS011;4899;42.644;23.366;2023-03-02T14:14:15;10.13;;;8.03;;
9720;SDS011;4899;42.644;23.366;2023-03-02T14:16:43;8.23;;;7.43;;
9720;SDS011;4899;42.644;23.366;2023-03-02T14:19:09;9.17;;;8.27;;
9720;SDS011;4899;42.644;23.366;2023-03-02T14:21:38;12.87;;;8.57;;
9720;SDS011;4899;42.644;23.366;2023-03-02T14:24:04;10.10;;;9.10;;
9720;SDS011;4899;42.644;23.366;2023-03-02T14:28:59;9.77;;;8.77;;
9720;SDS011;4899;42.644;23.366;2023-03-02T14:31:26;10.30;;;9.30;;
9720;SDS011;4899;42.644;23.366;2023-03-02T14:33:51;10.60;;;8.50;;
9720;SDS011;4899;42.644;23.366;2023-03-02T14:36:27;9.80;;;8.47;;
9720;SDS011;4899;42.644;23.366;2023-03-02T14:38:55;11.83;;;9.90;;
9720;SDS011;4899;42.644;23.366;2023-03-02T14:41:25;12.30;;;9.00;;
9720;SDS011;4899;42.644;23.366;2023-03-02T14:43:52;9.60;;;8.70;;
9720;SDS011;4899;42.644;23.366;2023-03-02T14:46:17;11.20;;;9.17;;
9720;SDS011;4899;42.644;23.366;2023-03-02T14:48:43;9.43;;;8.53;;
9720;SDS011;4899;42.644;23.366;2023-03-02T14:51:17;11.40;;;8.20;;
9720;SDS011;4899;42.644;23.366;2023-03-02T14:53:48;10.17;;;8.70;;
9720;SDS011;4899;42.644;23.366;2023-03-02T14:56:16;10.50;;;8.27;;
9720;SDS011;4899;42.644;23.366;2023-03-02T14:58:44;10.53;;;9.43;;
9720;SDS011;4899;42.644;23.366;2023-03-02T15:01:10;11.80;;;8.80;;
9720;SDS011;4899;42.644;23.366;2023-03-02T15:03:36;9.73;;;8.20;;
9720;SDS011;4899;42.644;23.366;2023-03-02T15:06:01;10.07;;;8.20;;
9720;SDS011;4899;42.644;23.366;2023-03-02T15:08:27;10.33;;;7.90;;
9720;SDS011;4899;42.644;23.366;2023-03-02T15:10:53;9.70;;;8.40;;
9720;SDS011;4899;42.644;23.366;2023-03-02T15:13:19;9.27;;;8.10;;
9720;SDS011;4899;42.644;23.366;2023-03-02T15:15:44;9.70;;;7.83;;
9720;SDS011;4899;42.644;23.366;2023-03-02T15:18:10;10.97;;;8.30;;
9720;SDS011;4899;42.644;23.366;2023-03-02T15:20:39;9.80;;;8.30;;
9720;SDS011;4899;42.644;23.366;2023-03-02T15:23:04;11.07;;;8.77;;
9720;SDS011;4899;42.644;23.366;2023-03-02T15:25:30;14.20;;;10.77;;
9720;SDS011;4899;42.644;23.366;2023-03-02T15:27:56;15.60;;;13.90;;
9720;SDS011;4899;42.644;23.366;2023-03-02T15:30:22;11.43;;;9.83;;
9720;SDS011;4899;42.644;23.366;2023-03-02T15:32:52;9.80;;;8.90;;
9720;SDS011;4899;42.644;23.366;2023-03-02T15:35:18;9.07;;;8.17;;
9720;SDS011;4899;42.644;23.366;2023-03-02T15:37:44;8.10;;;7.30;;
9720;SDS011;4899;42.644;23.366;2023-03-02T15:40:10;9.87;;;7.20;;
9720;SDS011;4899;42.644;23.366;2023-03-02T15:42:36;9.27;;;8.43;;
9720;SDS011;4899;42.644;23.366;2023-03-02T15:45:01;10.57;;;7.67;;
9720;SDS011;4899;42.644;23.366;2023-03-02T15:47:28;9.07;;;8.13;;
9720;SDS011;4899;42.644;23.366;2023-03-02T15:49:54;8.97;;;8.07;;
9720;SDS011;4899;42.644;23.366;2023-03-02T15:52:20;8.47;;;7.60;;
9720;SDS011;4899;42.644;23.366;2023-03-02T15:54:46;8.40;;;7.43;;
9720;SDS011;4899;42.644;23.366;2023-03-02T15:57:11;9.50;;;8.27;;
9720;SDS011;4899;42.644;23.366;2023-03-02T15:59:37;9.17;;;8.00;;
9720;SDS011;4899;42.644;23.366;2023-03-02T16:02:02;9.20;;;8.17;;